Maple Grove, Kentucky
Current Conditions -  °F | °C
As of 4:58 PM on Sunday 21 Dec 2014 (Local Time) from KHOP Reporting Station
Clear Clear  
Wind Chill: 44°   Ceiling: Unl
Heat Index: 44°   Visibility: 10mi
Dew Point: 31°   Wind: 3mph
Humidity: 60%   Direction: 40°NE
Pressure: 30.07"   Gusts: NA
Location:  36.8031°N, 87.8159°W
Report Text: KHOP 212258Z AUTO 04003KT 10SM CLR 07/M01 A3007 RMK AO2 SLP189 T00651007
Loading
Personal Weather Stations






























Interactive Weather Map New forecast layout! Learn more

10-Day Weather Forecast

Advertisements
Track Severe Weather on mobile